Quincy, IL (62305)

12:40 AM CST on February 11, 2016 (GMT -0600)
LIVE WEATHER | | Change Station
CLOSE
Current Station
Personal Weather Station
Location: Quincy, IL
Elevation: 620 ft
Nearby Weather Stations

Elev 620 ft 40.00 °N, 91.38 °W | Updated 7 seconds ago

Overcast
Overcast
20.3 °F
Feels Like 15 °F
N
3.6
Wind Variable Wind from NE
Gusts 3.6 mph

Today
High -- | Low -- °F
--% Chance of Precip.
Yesterday
High -- | Low -- °F
Precip. -- in
Pressure 30.21 in
Visibility 10.0 miles
Clouds Overcast 4700 ft
Windchill 15 °F
Dew Point 5 °F
Humidity 50%
Rainfall 0.00 in
Snow Depth Not available.
7:03 AM 5:36 PM
Waxing Crescent, 10% visible
METAR KUIN 110554Z AUTO 05004KT 10SM OVC047 M07/M10 A3018 RMK AO2 SLP230 T10721100 11067 21072 410671133 51013 $
Pressure 30.21 in
Visibility 10.0 miles
Clouds Overcast 4700 ft
Windchill 15 °F
Dew Point 5 °F
Humidity 50%
Rainfall 0.00 in
Snow Depth Not available.
7:03 AM 5:36 PM
Waxing Crescent, 10% visible
METAR KUIN 110554Z AUTO 05004KT 10SM OVC047 M07/M10 A3018 RMK AO2 SLP230 T10721100 11067 21072 410671133 51013 $

10-Day Weather Forecast

Almanac

Astronomy

Feb. 11, 2016 Rise Set
Actual Time
Civil Twilight
Nautical Twilight
Astronomical Twilight
Moon
Length of Visible Light
Length of Day
Tomorrow will be .
, % of the Moon is Illuminated

Today's Extremes

State Highs State Lows

Community

WunderPhotos

Upload Photos

1,892,028 photos uploaded!

WunderBlog® & News

Nearby

Air Quality

  Air Quality AQ Index Pollutant
Not available.

Snow Depth

Station Depth Elevation

Earthquake Activity

City Distance Mag. Time & Date
Minimum magnitude displayed is 2.5.

Coastal Water Temperatures

Place Temperature

Stations

Nearby Weather Stations

Station Location Temp. Windchill Dew Point Humidity Wind Precip. Elev Updated Type
                   

Watches & Warnings

There are currently no watches in effect.